createdAt,value
2023-03-14T00:00:37.196Z,33
2023-03-14T00:10:30.236Z,33
2023-03-14T00:20:38.398Z,34
2023-03-14T00:30:47.084Z,35
2023-03-14T00:40:55.170Z,35
2023-03-14T00:51:03.854Z,35
2023-03-14T01:01:17.052Z,34
2023-03-14T01:11:23.725Z,33
2023-03-14T01:22:02.134Z,31
2023-03-14T01:31:41.026Z,31
2023-03-14T01:41:29.074Z,32
2023-03-14T01:51:36.453Z,31
2023-03-14T02:01:44.315Z,32
2023-03-14T02:11:53.448Z,33
2023-03-14T02:21:53.722Z,33
2023-03-14T02:32:02.144Z,34
2023-03-14T02:42:10.073Z,34
2023-03-14T02:52:18.216Z,34
2023-03-14T03:02:26.403Z,35
2023-03-14T03:12:35.876Z,34
2023-03-14T03:22:43.821Z,35
2023-03-14T03:32:52.343Z,35
2023-03-14T03:43:01.524Z,35
2023-03-14T03:53:10.226Z,35
2023-03-14T04:03:16.404Z,36
2023-03-14T04:13:26.339Z,36
2023-03-14T04:23:34.502Z,37
2023-03-14T04:33:44.846Z,37
2023-03-14T04:43:50.178Z,38
2023-03-14T04:53:58.347Z,38
2023-03-14T05:04:06.512Z,39
2023-03-14T05:14:14.652Z,39
2023-03-14T05:24:25.429Z,39
2023-03-14T05:34:23.868Z,39
2023-03-14T05:44:32.017Z,40
2023-03-14T05:54:40.226Z,40
2023-03-14T06:04:49.468Z,41
2023-03-14T06:14:59.133Z,41
2023-03-14T06:25:07.385Z,41
2023-03-14T06:35:16.390Z,41
2023-03-14T06:45:28.737Z,42
2023-03-14T06:55:25.694Z,42
2023-03-14T07:05:34.073Z,42
2023-03-14T07:15:43.478Z,42
2023-03-14T07:25:51.440Z,41
2023-03-14T07:35:59.566Z,41
2023-03-14T07:46:07.579Z,40
2023-03-14T07:56:07.974Z,40
2023-03-14T08:06:15.733Z,39
2023-03-14T08:16:23.728Z,38
2023-03-14T08:26:31.716Z,36
2023-03-14T08:36:39.738Z,35
2023-03-14T08:46:47.551Z,35
2023-03-14T08:56:56.623Z,35
2023-03-14T09:07:06.654Z,35
2023-03-14T09:17:15.695Z,35
2023-03-14T09:27:23.680Z,34
2023-03-14T09:37:31.598Z,33
2023-03-14T09:47:46.390Z,33
2023-03-14T09:57:47.406Z,33
2023-03-14T10:07:56.090Z,33
2023-03-14T10:18:04.076Z,32
2023-03-14T10:28:12.057Z,32
2023-03-14T10:38:22.224Z,32
2023-03-14T10:48:20.809Z,31
2023-03-14T10:58:31.016Z,31
2023-03-14T11:08:37.392Z,31
2023-03-14T11:18:39.484Z,31
2023-03-14T11:28:49.038Z,30
2023-03-14T11:38:57.550Z,29
2023-03-14T11:49:05.655Z,28
2023-03-14T11:59:13.713Z,28
2023-03-14T12:09:21.688Z,27
2023-03-14T12:19:29.597Z,27
2023-03-14T12:29:37.545Z,27
2023-03-14T12:39:45.449Z,27
2023-03-14T12:49:54.356Z,27
2023-03-14T13:00:04.053Z,26
2023-03-14T13:10:03.061Z,26
2023-03-14T13:20:10.396Z,26
2023-03-14T13:30:18.854Z,26
2023-03-14T13:40:30.063Z,26
2023-03-14T13:50:28.026Z,27
2023-03-14T14:00:36.249Z,27
2023-03-14T14:10:44.602Z,25
2023-03-14T14:20:52.574Z,25
2023-03-14T14:31:01.937Z,25
2023-03-14T14:41:09.731Z,24
2023-03-14T14:51:17.311Z,24
2023-03-14T15:01:28.738Z,24
2023-03-14T15:11:28.055Z,23
2023-03-14T15:21:36.414Z,23
2023-03-14T15:31:38.139Z,24
2023-03-14T15:41:46.195Z,25
2023-03-14T15:51:56.767Z,25
2023-03-14T16:02:10.002Z,26
2023-03-14T16:12:20.467Z,26
2023-03-14T16:22:17.820Z,26
2023-03-14T16:32:20.665Z,26
2023-03-14T16:42:21.256Z,27
2023-03-14T16:52:29.301Z,28
2023-03-14T17:02:39.922Z,28
2023-03-14T17:12:48.208Z,29
2023-03-14T17:22:56.185Z,30
2023-03-14T17:33:04.412Z,31
2023-03-14T17:43:12.629Z,31
2023-03-14T17:53:23.499Z,31
2023-03-14T18:03:21.578Z,32
2023-03-14T18:13:30.945Z,32
2023-03-14T18:23:38.340Z,33
2023-03-14T18:33:46.589Z,34
2023-03-14T18:43:56.421Z,33
2023-03-14T18:54:10.199Z,34
2023-03-14T19:04:12.824Z,34
2023-03-14T19:14:24.470Z,34
2023-03-14T19:24:24.426Z,35
2023-03-14T19:34:32.707Z,36
2023-03-14T19:44:43.651Z,38
2023-03-14T19:54:43.204Z,41
2023-03-14T20:04:45.734Z,43
2023-03-14T20:14:53.138Z,49
2023-03-14T20:24:57.071Z,51
2023-03-14T20:35:03.473Z,54
2023-03-14T20:45:11.438Z,54
2023-03-14T20:55:21.663Z,50
2023-03-14T21:05:19.321Z,48
2023-03-14T21:15:26.716Z,46
2023-03-14T21:25:36.722Z,46
2023-03-14T21:35:43.352Z,47
2023-03-14T21:45:55.365Z,49
2023-03-14T21:55:56.518Z,49
2023-03-14T22:05:57.156Z,50
2023-03-14T22:16:05.659Z,49
2023-03-14T22:25:58.329Z,48
2023-03-14T22:36:07.865Z,51
2023-03-14T22:46:09.267Z,51
2023-03-14T22:56:16.521Z,52
2023-03-14T23:06:23.568Z,53
2023-03-14T23:16:39.742Z,53
2023-03-14T23:26:41.869Z,54
2023-03-14T23:36:49.843Z,55
2023-03-14T23:46:58.354Z,55
2023-03-14T23:57:05.945Z,54
